sensor_id;sensor_type;location;lat;lon;timestamp;P1;durP1;ratioP1;P2;durP2;ratioP2
32108;SDS011;18624;50.042;8.436;2022-12-07T00:01:12;11.57;;;8.80;;
32108;SDS011;18624;50.042;8.436;2022-12-07T00:03:41;14.07;;;9.85;;
32108;SDS011;18624;50.042;8.436;2022-12-07T00:06:09;13.85;;;10.15;;
32108;SDS011;18624;50.042;8.436;2022-12-07T00:08:37;12.10;;;8.70;;
32108;SDS011;18624;50.042;8.436;2022-12-07T00:11:05;14.30;;;10.50;;
32108;SDS011;18624;50.042;8.436;2022-12-07T00:13:39;13.90;;;10.35;;
32108;SDS011;18624;50.042;8.436;2022-12-07T00:16:10;14.88;;;10.93;;
32108;SDS011;18624;50.042;8.436;2022-12-07T00:18:40;13.50;;;9.27;;
32108;SDS011;18624;50.042;8.436;2022-12-07T00:21:11;13.65;;;11.02;;
32108;SDS011;18624;50.042;8.436;2022-12-07T00:23:43;12.65;;;10.27;;
32108;SDS011;18624;50.042;8.436;2022-12-07T00:26:20;14.82;;;10.73;;
32108;SDS011;18624;50.042;8.436;2022-12-07T00:28:48;15.02;;;10.27;;
32108;SDS011;18624;50.042;8.436;2022-12-07T00:31:17;14.02;;;9.43;;
32108;SDS011;18624;50.042;8.436;2022-12-07T00:33:45;15.43;;;10.93;;
32108;SDS011;18624;50.042;8.436;2022-12-07T00:36:16;13.55;;;10.65;;
32108;SDS011;18624;50.042;8.436;2022-12-07T00:38:51;16.50;;;11.98;;
32108;SDS011;18624;50.042;8.436;2022-12-07T00:41:19;16.52;;;11.88;;
32108;SDS011;18624;50.042;8.436;2022-12-07T00:43:47;17.83;;;11.32;;
32108;SDS011;18624;50.042;8.436;2022-12-07T00:46:15;22.08;;;13.55;;
32108;SDS011;18624;50.042;8.436;2022-12-07T00:48:42;18.08;;;11.40;;
32108;SDS011;18624;50.042;8.436;2022-12-07T00:51:10;17.20;;;11.77;;
32108;SDS011;18624;50.042;8.436;2022-12-07T00:53:40;18.85;;;11.32;;
32108;SDS011;18624;50.042;8.436;2022-12-07T00:56:20;15.80;;;9.75;;
32108;SDS011;18624;50.042;8.436;2022-12-07T00:58:49;14.73;;;9.88;;
32108;SDS011;18624;50.042;8.436;2022-12-07T01:01:16;15.73;;;11.38;;
32108;SDS011;18624;50.042;8.436;2022-12-07T01:03:43;15.80;;;10.90;;
32108;SDS011;18624;50.042;8.436;2022-12-07T01:06:09;14.18;;;10.27;;
32108;SDS011;18624;50.042;8.436;2022-12-07T01:08:41;14.38;;;10.25;;
32108;SDS011;18624;50.042;8.436;2022-12-07T01:11:07;15.30;;;11.25;;
32108;SDS011;18624;50.042;8.436;2022-12-07T01:13:37;15.35;;;10.82;;
32108;SDS011;18624;50.042;8.436;2022-12-07T01:16:04;17.02;;;10.57;;
32108;SDS011;18624;50.042;8.436;2022-12-07T01:18:32;15.82;;;11.38;;
32108;SDS011;18624;50.042;8.436;2022-12-07T01:23:31;17.00;;;12.32;;
32108;SDS011;18624;50.042;8.436;2022-12-07T01:25:59;19.58;;;12.27;;
32108;SDS011;18624;50.042;8.436;2022-12-07T01:28:27;15.43;;;11.02;;
32108;SDS011;18624;50.042;8.436;2022-12-07T01:31:04;13.95;;;10.93;;
32108;SDS011;18624;50.042;8.436;2022-12-07T01:33:38;15.95;;;10.05;;
32108;SDS011;18624;50.042;8.436;2022-12-07T01:36:24;13.02;;;9.98;;
32108;SDS011;18624;50.042;8.436;2022-12-07T01:38:59;16.58;;;10.68;;
32108;SDS011;18624;50.042;8.436;2022-12-07T01:41:32;14.18;;;10.30;;
32108;SDS011;18624;50.042;8.436;2022-12-07T01:46:43;16.98;;;11.95;;
32108;SDS011;18624;50.042;8.436;2022-12-07T01:51:55;18.85;;;12.05;;
32108;SDS011;18624;50.042;8.436;2022-12-07T01:54:27;13.45;;;10.05;;
32108;SDS011;18624;50.042;8.436;2022-12-07T01:56:54;13.57;;;9.57;;
32108;SDS011;18624;50.042;8.436;2022-12-07T01:59:23;13.88;;;9.57;;
32108;SDS011;18624;50.042;8.436;2022-12-07T02:01:52;12.80;;;9.20;;
32108;SDS011;18624;50.042;8.436;2022-12-07T02:04:22;11.75;;;8.23;;
32108;SDS011;18624;50.042;8.436;2022-12-07T02:06:49;11.15;;;7.85;;
32108;SDS011;18624;50.042;8.436;2022-12-07T02:09:16;12.27;;;8.05;;
32108;SDS011;18624;50.042;8.436;2022-12-07T02:11:43;9.57;;;7.28;;
32108;SDS011;18624;50.042;8.436;2022-12-07T02:14:10;10.98;;;7.65;;
32108;SDS011;18624;50.042;8.436;2022-12-07T02:22:28;12.73;;;9.00;;
32108;SDS011;18624;50.042;8.436;2022-12-07T02:25:15;12.18;;;8.80;;
32108;SDS011;18624;50.042;8.436;2022-12-07T02:27:56;12.18;;;7.78;;
32108;SDS011;18624;50.042;8.436;2022-12-07T02:30:32;10.88;;;7.97;;
32108;SDS011;18624;50.042;8.436;2022-12-07T02:33:03;10.07;;;7.25;;
32108;SDS011;18624;50.042;8.436;2022-12-07T02:41:07;12.93;;;7.60;;
32108;SDS011;18624;50.042;8.436;2022-12-07T02:43:39;15.70;;;9.30;;
32108;SDS011;18624;50.042;8.436;2022-12-07T02:46:17;11.10;;;8.13;;
32108;SDS011;18624;50.042;8.436;2022-12-07T02:48:47;11.88;;;7.80;;
32108;SDS011;18624;50.042;8.436;2022-12-07T02:51:17;12.55;;;7.88;;
32108;SDS011;18624;50.042;8.436;2022-12-07T02:53:44;12.50;;;7.18;;
32108;SDS011;18624;50.042;8.436;2022-12-07T02:59:39;12.27;;;8.63;;
32108;SDS011;18624;50.042;8.436;2022-12-07T03:04:50;13.50;;;7.82;;
32108;SDS011;18624;50.042;8.436;2022-12-07T03:10:02;11.95;;;7.60;;
32108;SDS011;18624;50.042;8.436;2022-12-07T03:12:44;9.52;;;7.18;;
32108;SDS011;18624;50.042;8.436;2022-12-07T03:18:16;11.00;;;7.82;;
32108;SDS011;18624;50.042;8.436;2022-12-07T03:20:48;12.25;;;7.97;;
32108;SDS011;18624;50.042;8.436;2022-12-07T03:23:17;12.68;;;7.88;;
32108;SDS011;18624;50.042;8.436;2022-12-07T03:25:46;10.05;;;7.93;;
32108;SDS011;18624;50.042;8.436;2022-12-07T03:28:19;9.63;;;6.50;;
32108;SDS011;18624;50.042;8.436;2022-12-07T03:30:50;12.80;;;7.32;;
32108;SDS011;18624;50.042;8.436;2022-12-07T03:33:36;10.00;;;6.80;;
32108;SDS011;18624;50.042;8.436;2022-12-07T03:36:31;10.77;;;6.93;;
32108;SDS011;18624;50.042;8.436;2022-12-07T03:39:03;9.48;;;6.40;;
32108;SDS011;18624;50.042;8.436;2022-12-07T03:41:40;8.18;;;5.88;;
32108;SDS011;18624;50.042;8.436;2022-12-07T03:44:10;10.68;;;6.70;;
32108;SDS011;18624;50.042;8.436;2022-12-07T03:46:42;10.27;;;6.95;;
32108;SDS011;18624;50.042;8.436;2022-12-07T03:49:23;12.48;;;7.28;;
32108;SDS011;18624;50.042;8.436;2022-12-07T03:54:42;9.50;;;6.72;;
32108;SDS011;18624;50.042;8.436;2022-12-07T03:57:15;12.93;;;7.25;;
32108;SDS011;18624;50.042;8.436;2022-12-07T03:59:43;10.07;;;7.22;;
32108;SDS011;18624;50.042;8.436;2022-12-07T04:02:11;13.07;;;8.35;;
32108;SDS011;18624;50.042;8.436;2022-12-07T04:04:39;10.80;;;6.82;;
32108;SDS011;18624;50.042;8.436;2022-12-07T04:07:07;11.45;;;6.68;;
32108;SDS011;18624;50.042;8.436;2022-12-07T04:09:34;10.48;;;7.13;;
32108;SDS011;18624;50.042;8.436;2022-12-07T04:12:00;9.48;;;7.55;;
32108;SDS011;18624;50.042;8.436;2022-12-07T04:14:26;10.70;;;7.47;;
32108;SDS011;18624;50.042;8.436;2022-12-07T04:16:54;11.02;;;7.25;;
32108;SDS011;18624;50.042;8.436;2022-12-07T04:19:26;10.45;;;6.82;;
32108;SDS011;18624;50.042;8.436;2022-12-07T04:21:54;9.40;;;6.57;;
32108;SDS011;18624;50.042;8.436;2022-12-07T04:24:21;11.25;;;7.32;;
32108;SDS011;18624;50.042;8.436;2022-12-07T04:26:48;8.73;;;6.55;;
32108;SDS011;18624;50.042;8.436;2022-12-07T04:29:15;12.55;;;7.00;;
32108;SDS011;18624;50.042;8.436;2022-12-07T04:31:42;12.45;;;8.13;;
32108;SDS011;18624;50.042;8.436;2022-12-07T04:34:09;12.45;;;7.65;;
32108;SDS011;18624;50.042;8.436;2022-12-07T04:36:37;11.25;;;7.53;;
32108;SDS011;18624;50.042;8.436;2022-12-07T04:39:04;12.20;;;7.70;;
32108;SDS011;18624;50.042;8.436;2022-12-07T04:41:32;15.00;;;8.57;;
32108;SDS011;18624;50.042;8.436;2022-12-07T04:43:59;9.57;;;7.30;;
32108;SDS011;18624;50.042;8.436;2022-12-07T04:46:28;10.43;;;7.10;;
32108;SDS011;18624;50.042;8.436;2022-12-07T04:48:56;9.25;;;6.18;;
32108;SDS011;18624;50.042;8.436;2022-12-07T04:51:24;10.13;;;6.85;;
32108;SDS011;18624;50.042;8.436;2022-12-07T04:53:53;11.45;;;7.88;;
32108;SDS011;18624;50.042;8.436;2022-12-07T04:56:20;11.15;;;7.03;;
32108;SDS011;18624;50.042;8.436;2022-12-07T04:58:47;8.65;;;6.35;;
32108;SDS011;18624;50.042;8.436;2022-12-07T05:01:15;9.52;;;6.07;;
32108;SDS011;18624;50.042;8.436;2022-12-07T05:03:43;10.45;;;6.82;;
32108;SDS011;18624;50.042;8.436;2022-12-07T05:06:10;11.38;;;7.75;;
32108;SDS011;18624;50.042;8.436;2022-12-07T05:08:39;11.65;;;7.47;;
32108;SDS011;18624;50.042;8.436;2022-12-07T05:11:05;11.57;;;7.18;;
32108;SDS011;18624;50.042;8.436;2022-12-07T05:13:33;14.05;;;7.45;;
32108;SDS011;18624;50.042;8.436;2022-12-07T05:16:00;10.85;;;7.05;;
32108;SDS011;18624;50.042;8.436;2022-12-07T05:18:27;13.75;;;8.35;;
32108;SDS011;18624;50.042;8.436;2022-12-07T05:20:53;11.50;;;7.75;;
32108;SDS011;18624;50.042;8.436;2022-12-07T05:23:20;17.02;;;7.90;;
32108;SDS011;18624;50.042;8.436;2022-12-07T05:25:46;14.02;;;7.93;;
32108;SDS011;18624;50.042;8.436;2022-12-07T05:28:13;10.93;;;7.75;;
32108;SDS011;18624;50.042;8.436;2022-12-07T05:30:39;10.68;;;8.48;;
32108;SDS011;18624;50.042;8.436;2022-12-07T05:33:05;12.25;;;7.93;;
32108;SDS011;18624;50.042;8.436;2022-12-07T05:35:32;12.48;;;8.43;;
32108;SDS011;18624;50.042;8.436;2022-12-07T05:37:58;13.30;;;7.18;;
32108;SDS011;18624;50.042;8.436;2022-12-07T05:40:24;11.57;;;8.18;;
32108;SDS011;18624;50.042;8.436;2022-12-07T05:42:51;11.35;;;8.02;;
32108;SDS011;18624;50.042;8.436;2022-12-07T05:45:17;12.20;;;9.20;;
32108;SDS011;18624;50.042;8.436;2022-12-07T05:47:44;13.52;;;8.55;;
32108;SDS011;18624;50.042;8.436;2022-12-07T05:50:10;12.85;;;9.10;;
32108;SDS011;18624;50.042;8.436;2022-12-07T05:52:36;13.20;;;9.13;;
32108;SDS011;18624;50.042;8.436;2022-12-07T05:55:03;10.68;;;8.60;;
32108;SDS011;18624;50.042;8.436;2022-12-07T05:57:30;10.02;;;7.82;;
32108;SDS011;18624;50.042;8.436;2022-12-07T05:59:56;12.48;;;9.75;;
32108;SDS011;18624;50.042;8.436;2022-12-07T06:02:22;14.45;;;9.32;;
32108;SDS011;18624;50.042;8.436;2022-12-07T06:04:49;13.27;;;10.02;;
32108;SDS011;18624;50.042;8.436;2022-12-07T06:07:16;14.38;;;9.73;;
32108;SDS011;18624;50.042;8.436;2022-12-07T06:09:43;11.23;;;9.23;;
32108;SDS011;18624;50.042;8.436;2022-12-07T06:12:10;13.27;;;9.55;;
32108;SDS011;18624;50.042;8.436;2022-12-07T06:14:56;13.70;;;10.18;;
32108;SDS011;18624;50.042;8.436;2022-12-07T06:17:23;10.65;;;7.88;;
32108;SDS011;18624;50.042;8.436;2022-12-07T06:19:49;10.45;;;8.52;;
32108;SDS011;18624;50.042;8.436;2022-12-07T06:22:16;11.35;;;8.15;;
32108;SDS011;18624;50.042;8.436;2022-12-07T06:24:43;13.48;;;9.23;;
32108;SDS011;18624;50.042;8.436;2022-12-07T06:27:10;12.85;;;9.45;;
32108;SDS011;18624;50.042;8.436;2022-12-07T06:29:36;13.52;;;8.65;;
32108;SDS011;18624;50.042;8.436;2022-12-07T06:32:03;11.43;;;8.63;;
32108;SDS011;18624;50.042;8.436;2022-12-07T06:34:30;12.90;;;8.93;;
32108;SDS011;18624;50.042;8.436;2022-12-07T06:36:57;12.48;;;9.18;;
32108;SDS011;18624;50.042;8.436;2022-12-07T06:39:25;11.98;;;9.38;;
32108;SDS011;18624;50.042;8.436;2022-12-07T06:41:53;14.63;;;10.43;;
32108;SDS011;18624;50.042;8.436;2022-12-07T06:44:20;12.75;;;8.05;;
32108;SDS011;18624;50.042;8.436;2022-12-07T06:46:48;10.95;;;8.93;;
32108;SDS011;18624;50.042;8.436;2022-12-07T06:49:15;12.50;;;9.00;;
32108;SDS011;18624;50.042;8.436;2022-12-07T06:51:42;10.80;;;8.63;;
32108;SDS011;18624;50.042;8.436;2022-12-07T06:54:09;13.50;;;9.82;;
32108;SDS011;18624;50.042;8.436;2022-12-07T06:56:37;12.57;;;9.48;;
32108;SDS011;18624;50.042;8.436;2022-12-07T06:59:04;14.30;;;10.10;;
32108;SDS011;18624;50.042;8.436;2022-12-07T07:01:33;15.75;;;10.75;;
32108;SDS011;18624;50.042;8.436;2022-12-07T07:04:00;19.33;;;13.18;;
32108;SDS011;18624;50.042;8.436;2022-12-07T07:06:27;16.23;;;11.38;;
32108;SDS011;18624;50.042;8.436;2022-12-07T07:08:53;12.70;;;10.50;;
32108;SDS011;18624;50.042;8.436;2022-12-07T07:11:20;14.88;;;10.43;;
32108;SDS011;18624;50.042;8.436;2022-12-07T07:13:46;13.10;;;9.23;;
32108;SDS011;18624;50.042;8.436;2022-12-07T07:16:13;12.18;;;9.40;;
32108;SDS011;18624;50.042;8.436;2022-12-07T07:18:40;11.52;;;9.30;;
32108;SDS011;18624;50.042;8.436;2022-12-07T07:21:06;12.93;;;8.13;;
32108;SDS011;18624;50.042;8.436;2022-12-07T07:23:33;12.70;;;9.48;;
32108;SDS011;18624;50.042;8.436;2022-12-07T07:25:59;14.57;;;10.57;;
32108;SDS011;18624;50.042;8.436;2022-12-07T07:28:25;20.27;;;13.25;;
32108;SDS011;18624;50.042;8.436;2022-12-07T07:30:52;26.15;;;16.55;;
32108;SDS011;18624;50.042;8.436;2022-12-07T07:33:19;20.15;;;13.98;;
32108;SDS011;18624;50.042;8.436;2022-12-07T07:35:45;14.00;;;10.60;;
32108;SDS011;18624;50.042;8.436;2022-12-07T07:38:11;17.13;;;11.85;;
32108;SDS011;18624;50.042;8.436;2022-12-07T07:40:38;13.60;;;9.15;;
32108;SDS011;18624;50.042;8.436;2022-12-07T07:43:04;12.13;;;9.45;;
32108;SDS011;18624;50.042;8.436;2022-12-07T07:45:31;12.13;;;8.93;;
32108;SDS011;18624;50.042;8.436;2022-12-07T07:47:57;12.90;;;8.82;;
32108;SDS011;18624;50.042;8.436;2022-12-07T07:50:23;10.63;;;8.27;;
32108;SDS011;18624;50.042;8.436;2022-12-07T07:52:50;11.73;;;8.48;;
32108;SDS011;18624;50.042;8.436;2022-12-07T07:55:17;12.35;;;8.32;;
32108;SDS011;18624;50.042;8.436;2022-12-07T07:57:43;11.00;;;8.20;;
32108;SDS011;18624;50.042;8.436;2022-12-07T08:00:16;10.80;;;8.15;;
32108;SDS011;18624;50.042;8.436;2022-12-07T08:02:43;14.15;;;8.80;;
32108;SDS011;18624;50.042;8.436;2022-12-07T08:05:10;10.38;;;8.23;;
32108;SDS011;18624;50.042;8.436;2022-12-07T08:07:38;12.43;;;7.68;;
32108;SDS011;18624;50.042;8.436;2022-12-07T08:10:05;11.00;;;8.15;;
32108;SDS011;18624;50.042;8.436;2022-12-07T08:12:35;12.13;;;7.82;;
32108;SDS011;18624;50.042;8.436;2022-12-07T08:15:03;9.88;;;7.72;;
32108;SDS011;18624;50.042;8.436;2022-12-07T08:17:30;10.07;;;6.80;;
32108;SDS011;18624;50.042;8.436;2022-12-07T08:19:56;10.85;;;8.45;;
32108;SDS011;18624;50.042;8.436;2022-12-07T08:22:22;10.77;;;8.35;;
32108;SDS011;18624;50.042;8.436;2022-12-07T08:24:49;11.07;;;8.60;;
32108;SDS011;18624;50.042;8.436;2022-12-07T08:27:15;11.75;;;8.77;;
32108;SDS011;18624;50.042;8.436;2022-12-07T08:29:42;14.52;;;8.95;;
32108;SDS011;18624;50.042;8.436;2022-12-07T08:32:08;19.88;;;13.30;;
32108;SDS011;18624;50.042;8.436;2022-12-07T08:34:35;12.90;;;9.88;;
32108;SDS011;18624;50.042;8.436;2022-12-07T08:37:02;12.20;;;8.77;;
32108;SDS011;18624;50.042;8.436;2022-12-07T08:39:30;11.52;;;8.32;;
32108;SDS011;18624;50.042;8.436;2022-12-07T08:41:58;9.60;;;7.30;;
32108;SDS011;18624;50.042;8.436;2022-12-07T08:44:24;8.93;;;6.82;;
32108;SDS011;18624;50.042;8.436;2022-12-07T08:46:52;9.95;;;8.70;;
32108;SDS011;18624;50.042;8.436;2022-12-07T08:49:24;11.40;;;8.80;;
32108;SDS011;18624;50.042;8.436;2022-12-07T08:51:54;11.77;;;8.88;;
32108;SDS011;18624;50.042;8.436;2022-12-07T08:54:21;12.30;;;9.10;;
32108;SDS011;18624;50.042;8.436;2022-12-07T08:56:48;10.32;;;8.68;;
32108;SDS011;18624;50.042;8.436;2022-12-07T08:59:24;10.93;;;8.35;;
32108;SDS011;18624;50.042;8.436;2022-12-07T09:01:51;11.75;;;9.18;;
32108;SDS011;18624;50.042;8.436;2022-12-07T09:04:18;11.63;;;8.10;;
32108;SDS011;18624;50.042;8.436;2022-12-07T09:06:44;12.00;;;8.52;;
32108;SDS011;18624;50.042;8.436;2022-12-07T09:09:11;13.07;;;9.38;;
32108;SDS011;18624;50.042;8.436;2022-12-07T09:11:39;9.88;;;8.02;;
32108;SDS011;18624;50.042;8.436;2022-12-07T09:14:05;15.63;;;8.13;;
32108;SDS011;18624;50.042;8.436;2022-12-07T09:16:32;9.52;;;6.82;;
32108;SDS011;18624;50.042;8.436;2022-12-07T09:18:59;9.70;;;6.97;;
32108;SDS011;18624;50.042;8.436;2022-12-07T09:21:25;8.40;;;7.55;;
32108;SDS011;18624;50.042;8.436;2022-12-07T09:23:51;10.90;;;8.10;;
32108;SDS011;18624;50.042;8.436;2022-12-07T09:26:18;9.90;;;7.88;;
32108;SDS011;18624;50.042;8.436;2022-12-07T09:28:44;13.00;;;8.45;;
32108;SDS011;18624;50.042;8.436;2022-12-07T09:31:11;12.05;;;8.13;;
32108;SDS011;18624;50.042;8.436;2022-12-07T09:33:55;10.52;;;8.13;;
32108;SDS011;18624;50.042;8.436;2022-12-07T09:36:27;11.68;;;8.38;;
32108;SDS011;18624;50.042;8.436;2022-12-07T09:38:54;9.65;;;7.72;;
32108;SDS011;18624;50.042;8.436;2022-12-07T09:41:21;10.10;;;8.07;;
32108;SDS011;18624;50.042;8.436;2022-12-07T09:43:50;10.15;;;7.85;;
32108;SDS011;18624;50.042;8.436;2022-12-07T09:46:18;13.07;;;8.70;;
32108;SDS011;18624;50.042;8.436;2022-12-07T09:48:46;9.85;;;7.93;;
32108;SDS011;18624;50.042;8.436;2022-12-07T09:51:18;12.63;;;7.93;;
32108;SDS011;18624;50.042;8.436;2022-12-07T09:53:50;13.50;;;7.80;;
32108;SDS011;18624;50.042;8.436;2022-12-07T09:56:19;10.05;;;7.85;;
32108;SDS011;18624;50.042;8.436;2022-12-07T09:58:46;8.68;;;6.55;;
32108;SDS011;18624;50.042;8.436;2022-12-07T10:01:18;10.75;;;7.05;;
32108;SDS011;18624;50.042;8.436;2022-12-07T10:03:50;8.80;;;6.45;;
32108;SDS011;18624;50.042;8.436;2022-12-07T10:06:18;8.75;;;5.85;;
32108;SDS011;18624;50.042;8.436;2022-12-07T10:08:45;9.25;;;6.00;;
32108;SDS011;18624;50.042;8.436;2022-12-07T10:11:11;8.73;;;6.72;;
32108;SDS011;18624;50.042;8.436;2022-12-07T10:13:41;10.13;;;7.45;;
32108;SDS011;18624;50.042;8.436;2022-12-07T10:18:50;9.25;;;6.07;;
32108;SDS011;18624;50.042;8.436;2022-12-07T10:21:18;8.38;;;6.20;;
32108;SDS011;18624;50.042;8.436;2022-12-07T10:26:32;7.45;;;5.60;;
32108;SDS011;18624;50.042;8.436;2022-12-07T10:29:12;7.50;;;5.38;;
32108;SDS011;18624;50.042;8.436;2022-12-07T10:31:45;9.63;;;6.30;;
32108;SDS011;18624;50.042;8.436;2022-12-07T10:34:26;6.07;;;5.03;;
32108;SDS011;18624;50.042;8.436;2022-12-07T10:39:47;5.25;;;4.00;;
32108;SDS011;18624;50.042;8.436;2022-12-07T10:42:22;7.07;;;4.18;;
32108;SDS011;18624;50.042;8.436;2022-12-07T10:45:06;5.78;;;3.85;;
32108;SDS011;18624;50.042;8.436;2022-12-07T10:53:07;7.53;;;4.72;;
32108;SDS011;18624;50.042;8.436;2022-12-07T10:58:47;7.15;;;4.50;;
32108;SDS011;18624;50.042;8.436;2022-12-07T11:01:43;9.18;;;4.43;;
32108;SDS011;18624;50.042;8.436;2022-12-07T11:07:14;10.27;;;4.15;;
32108;SDS011;18624;50.042;8.436;2022-12-07T11:26:45;5.00;;;2.85;;
32108;SDS011;18624;50.042;8.436;2022-12-07T11:29:50;4.13;;;2.33;;
32108;SDS011;18624;50.042;8.436;2022-12-07T11:37:44;5.82;;;2.35;;
32108;SDS011;18624;50.042;8.436;2022-12-07T11:43:11;4.32;;;1.60;;
32108;SDS011;18624;50.042;8.436;2022-12-07T11:46:02;4.30;;;2.70;;
32108;SDS011;18624;50.042;8.436;2022-12-07T11:48:33;5.15;;;3.47;;
32108;SDS011;18624;50.042;8.436;2022-12-07T11:51:04;4.17;;;2.50;;
32108;SDS011;18624;50.042;8.436;2022-12-07T11:53:37;6.18;;;3.65;;
32108;SDS011;18624;50.042;8.436;2022-12-07T11:56:10;3.58;;;2.50;;
32108;SDS011;18624;50.042;8.436;2022-12-07T11:58:44;2.83;;;1.92;;
32108;SDS011;18624;50.042;8.436;2022-12-07T12:06:43;7.20;;;3.78;;
32108;SDS011;18624;50.042;8.436;2022-12-07T12:15:29;3.30;;;2.25;;
32108;SDS011;18624;50.042;8.436;2022-12-07T12:21:09;3.75;;;2.70;;
32108;SDS011;18624;50.042;8.436;2022-12-07T12:23:46;4.72;;;2.63;;
32108;SDS011;18624;50.042;8.436;2022-12-07T12:26:23;3.00;;;2.45;;
32108;SDS011;18624;50.042;8.436;2022-12-07T12:28:56;2.95;;;2.60;;
32108;SDS011;18624;50.042;8.436;2022-12-07T12:33:55;4.28;;;2.75;;
32108;SDS011;18624;50.042;8.436;2022-12-07T12:36:30;2.50;;;2.30;;
32108;SDS011;18624;50.042;8.436;2022-12-07T12:39:12;4.53;;;2.90;;
32108;SDS011;18624;50.042;8.436;2022-12-07T12:51:43;3.58;;;2.28;;
32108;SDS011;18624;50.042;8.436;2022-12-07T12:54:19;3.50;;;2.30;;
32108;SDS011;18624;50.042;8.436;2022-12-07T12:57:08;3.23;;;2.20;;
32108;SDS011;18624;50.042;8.436;2022-12-07T13:02:21;2.92;;;2.20;;
32108;SDS011;18624;50.042;8.436;2022-12-07T13:04:57;3.38;;;2.72;;
32108;SDS011;18624;50.042;8.436;2022-12-07T13:07:59;3.45;;;2.72;;
32108;SDS011;18624;50.042;8.436;2022-12-07T13:10:44;4.88;;;3.60;;
32108;SDS011;18624;50.042;8.436;2022-12-07T13:15:41;6.00;;;3.50;;
32108;SDS011;18624;50.042;8.436;2022-12-07T13:26:16;4.05;;;2.10;;
32108;SDS011;18624;50.042;8.436;2022-12-07T13:28:48;9.95;;;2.22;;
32108;SDS011;18624;50.042;8.436;2022-12-07T13:31:20;3.15;;;2.13;;
32108;SDS011;18624;50.042;8.436;2022-12-07T13:33:56;3.28;;;1.73;;
32108;SDS011;18624;50.042;8.436;2022-12-07T13:36:23;5.18;;;2.40;;
32108;SDS011;18624;50.042;8.436;2022-12-07T13:38:56;6.10;;;2.47;;
32108;SDS011;18624;50.042;8.436;2022-12-07T13:41:25;4.05;;;3.05;;
32108;SDS011;18624;50.042;8.436;2022-12-07T13:44:05;4.35;;;3.30;;
32108;SDS011;18624;50.042;8.436;2022-12-07T13:46:41;3.45;;;2.42;;
32108;SDS011;18624;50.042;8.436;2022-12-07T13:49:16;4.25;;;2.88;;
32108;SDS011;18624;50.042;8.436;2022-12-07T13:51:45;5.43;;;2.70;;
32108;SDS011;18624;50.042;8.436;2022-12-07T13:54:12;5.10;;;2.42;;
32108;SDS011;18624;50.042;8.436;2022-12-07T13:56:39;6.75;;;3.13;;
32108;SDS011;18624;50.042;8.436;2022-12-07T13:59:22;5.95;;;2.65;;
32108;SDS011;18624;50.042;8.436;2022-12-07T14:01:51;3.90;;;2.08;;
32108;SDS011;18624;50.042;8.436;2022-12-07T14:04:30;6.18;;;2.72;;
32108;SDS011;18624;50.042;8.436;2022-12-07T14:06:59;3.92;;;2.20;;
32108;SDS011;18624;50.042;8.436;2022-12-07T14:09:28;4.95;;;2.88;;
32108;SDS011;18624;50.042;8.436;2022-12-07T14:11:56;3.30;;;2.10;;
32108;SDS011;18624;50.042;8.436;2022-12-07T14:14:28;4.35;;;1.98;;
32108;SDS011;18624;50.042;8.436;2022-12-07T14:17:18;3.50;;;2.10;;
32108;SDS011;18624;50.042;8.436;2022-12-07T14:19:47;3.90;;;2.33;;
32108;SDS011;18624;50.042;8.436;2022-12-07T14:22:23;10.60;;;1.65;;
32108;SDS011;18624;50.042;8.436;2022-12-07T14:24:58;2.78;;;1.50;;
32108;SDS011;18624;50.042;8.436;2022-12-07T14:27:47;3.13;;;1.35;;
32108;SDS011;18624;50.042;8.436;2022-12-07T14:30:23;3.03;;;1.58;;
32108;SDS011;18624;50.042;8.436;2022-12-07T14:32:52;7.10;;;2.80;;
32108;SDS011;18624;50.042;8.436;2022-12-07T14:35:21;6.80;;;2.60;;
32108;SDS011;18624;50.042;8.436;2022-12-07T14:37:48;6.43;;;2.90;;
32108;SDS011;18624;50.042;8.436;2022-12-07T14:40:22;2.92;;;1.98;;
32108;SDS011;18624;50.042;8.436;2022-12-07T14:42:52;5.32;;;2.92;;
32108;SDS011;18624;50.042;8.436;2022-12-07T14:45:23;3.10;;;1.65;;
32108;SDS011;18624;50.042;8.436;2022-12-07T14:47:49;3.78;;;1.38;;
32108;SDS011;18624;50.042;8.436;2022-12-07T14:50:37;4.55;;;1.60;;
32108;SDS011;18624;50.042;8.436;2022-12-07T14:53:46;3.47;;;1.25;;
32108;SDS011;18624;50.042;8.436;2022-12-07T14:56:22;4.63;;;1.90;;
32108;SDS011;18624;50.042;8.436;2022-12-07T14:58:48;2.78;;;1.17;;
32108;SDS011;18624;50.042;8.436;2022-12-07T15:01:15;3.45;;;1.80;;
32108;SDS011;18624;50.042;8.436;2022-12-07T15:03:41;2.83;;;1.40;;
32108;SDS011;18624;50.042;8.436;2022-12-07T15:06:10;3.75;;;1.70;;
32108;SDS011;18624;50.042;8.436;2022-12-07T15:08:40;2.25;;;1.20;;
32108;SDS011;18624;50.042;8.436;2022-12-07T15:11:08;2.08;;;1.30;;
32108;SDS011;18624;50.042;8.436;2022-12-07T15:13:38;2.40;;;1.58;;
32108;SDS011;18624;50.042;8.436;2022-12-07T15:16:23;3.95;;;2.55;;
32108;SDS011;18624;50.042;8.436;2022-12-07T15:18:49;4.15;;;2.22;;
32108;SDS011;18624;50.042;8.436;2022-12-07T15:21:36;3.35;;;1.98;;
32108;SDS011;18624;50.042;8.436;2022-12-07T15:24:02;7.72;;;2.70;;
32108;SDS011;18624;50.042;8.436;2022-12-07T15:26:29;5.43;;;1.65;;
32108;SDS011;18624;50.042;8.436;2022-12-07T15:28:55;7.53;;;2.72;;
32108;SDS011;18624;50.042;8.436;2022-12-07T15:31:21;3.60;;;2.40;;
32108;SDS011;18624;50.042;8.436;2022-12-07T15:34:08;4.40;;;2.78;;
32108;SDS011;18624;50.042;8.436;2022-12-07T15:36:34;4.22;;;2.13;;
32108;SDS011;18624;50.042;8.436;2022-12-07T15:39:01;4.80;;;2.33;;
32108;SDS011;18624;50.042;8.436;2022-12-07T15:41:44;4.13;;;1.95;;
32108;SDS011;18624;50.042;8.436;2022-12-07T15:44:11;6.65;;;2.90;;
32108;SDS011;18624;50.042;8.436;2022-12-07T15:46:57;4.13;;;2.28;;
32108;SDS011;18624;50.042;8.436;2022-12-07T15:49:24;5.13;;;3.10;;
32108;SDS011;18624;50.042;8.436;2022-12-07T15:51:51;3.80;;;3.20;;
32108;SDS011;18624;50.042;8.436;2022-12-07T15:54:19;5.05;;;2.78;;
32108;SDS011;18624;50.042;8.436;2022-12-07T15:56:48;4.25;;;2.65;;
32108;SDS011;18624;50.042;8.436;2022-12-07T15:59:15;3.80;;;2.50;;
32108;SDS011;18624;50.042;8.436;2022-12-07T16:01:42;6.10;;;2.40;;
32108;SDS011;18624;50.042;8.436;2022-12-07T16:04:09;4.60;;;2.72;;
32108;SDS011;18624;50.042;8.436;2022-12-07T16:06:36;3.70;;;2.72;;
32108;SDS011;18624;50.042;8.436;2022-12-07T16:09:03;2.75;;;2.00;;
32108;SDS011;18624;50.042;8.436;2022-12-07T16:11:30;6.43;;;2.17;;
32108;SDS011;18624;50.042;8.436;2022-12-07T16:13:57;4.03;;;2.28;;
32108;SDS011;18624;50.042;8.436;2022-12-07T16:16:23;5.13;;;2.95;;
32108;SDS011;18624;50.042;8.436;2022-12-07T16:18:50;4.57;;;2.72;;
32108;SDS011;18624;50.042;8.436;2022-12-07T16:21:17;6.53;;;3.78;;
32108;SDS011;18624;50.042;8.436;2022-12-07T16:23:50;7.55;;;4.25;;
32108;SDS011;18624;50.042;8.436;2022-12-07T16:26:17;6.72;;;3.72;;
32108;SDS011;18624;50.042;8.436;2022-12-07T16:28:47;2.95;;;1.98;;
32108;SDS011;18624;50.042;8.436;2022-12-07T16:31:18;7.95;;;5.15;;
32108;SDS011;18624;50.042;8.436;2022-12-07T16:33:46;7.88;;;6.47;;
32108;SDS011;18624;50.042;8.436;2022-12-07T16:36:13;7.78;;;4.68;;
32108;SDS011;18624;50.042;8.436;2022-12-07T16:39:02;4.50;;;2.67;;
32108;SDS011;18624;50.042;8.436;2022-12-07T16:41:30;5.93;;;2.53;;
32108;SDS011;18624;50.042;8.436;2022-12-07T16:43:56;3.95;;;2.63;;
32108;SDS011;18624;50.042;8.436;2022-12-07T16:46:23;3.60;;;2.30;;
32108;SDS011;18624;50.042;8.436;2022-12-07T16:48:49;5.10;;;3.55;;
32108;SDS011;18624;50.042;8.436;2022-12-07T16:51:16;3.75;;;1.92;;
32108;SDS011;18624;50.042;8.436;2022-12-07T16:53:42;5.28;;;2.60;;
32108;SDS011;18624;50.042;8.436;2022-12-07T16:56:14;2.58;;;1.98;;